createdAt,value
2022-10-25T00:02:26.397Z,15.00
2022-10-25T00:04:53.569Z,15.00
2022-10-25T00:07:20.837Z,15.00
2022-10-25T00:09:48.054Z,15.10
2022-10-25T00:12:15.186Z,15.00
2022-10-25T00:14:42.286Z,15.00
2022-10-25T00:17:10.744Z,15.10
2022-10-25T00:19:38.161Z,15.10
2022-10-25T00:22:05.611Z,15.10
2022-10-25T00:24:32.870Z,15.10
2022-10-25T00:27:00.025Z,15.00
2022-10-25T00:29:30.354Z,15.00
2022-10-25T00:31:57.758Z,15.00
2022-10-25T00:34:24.927Z,15.00
2022-10-25T00:36:52.214Z,15.00
2022-10-25T00:39:19.370Z,15.00
2022-10-25T00:41:46.762Z,15.00
2022-10-25T00:44:35.870Z,15.00
2022-10-25T00:47:16.062Z,15.00
2022-10-25T00:49:46.665Z,15.00
2022-10-25T00:52:14.111Z,15.00
2022-10-25T00:54:50.573Z,15.00
2022-10-25T00:57:31.858Z,15.00
2022-10-25T01:00:00.538Z,15.00
2022-10-25T01:02:28.206Z,15.00
2022-10-25T01:04:55.958Z,15.00
2022-10-25T01:07:23.215Z,15.00
2022-10-25T01:09:51.442Z,15.00
2022-10-25T01:12:18.612Z,15.00
2022-10-25T01:14:50.670Z,15.00
2022-10-25T01:17:41.854Z,15.00
2022-10-25T01:20:45.126Z,15.00
2022-10-25T01:23:52.398Z,15.00
2022-10-25T01:26:59.947Z,14.90
2022-10-25T01:29:46.847Z,14.90
2022-10-25T01:32:44.243Z,14.90
2022-10-25T01:35:36.118Z,14.90
2022-10-25T01:38:37.162Z,14.90
2022-10-25T01:41:53.085Z,14.90
2022-10-25T01:44:32.310Z,14.90
2022-10-25T01:47:08.478Z,14.90
2022-10-25T01:49:50.820Z,14.80
2022-10-25T01:52:22.687Z,14.80
2022-10-25T01:54:51.501Z,14.80
2022-10-25T01:57:54.091Z,14.80
2022-10-25T02:00:23.725Z,14.80
2022-10-25T02:03:28.828Z,14.70
2022-10-25T02:06:10.742Z,14.70
2022-10-25T02:08:55.738Z,14.70
2022-10-25T02:11:30.352Z,14.70
2022-10-25T02:14:38.507Z,14.60
2022-10-25T02:17:10.518Z,14.60
2022-10-25T02:19:45.570Z,14.60
2022-10-25T02:22:15.615Z,14.50
2022-10-25T02:24:46.907Z,14.50
2022-10-25T02:27:15.853Z,14.50
2022-10-25T02:29:45.286Z,14.50
2022-10-25T02:32:12.753Z,14.50
2022-10-25T02:34:41.343Z,14.50
2022-10-25T02:37:08.457Z,14.50
2022-10-25T02:39:36.326Z,14.50
2022-10-25T02:42:05.761Z,14.50
2022-10-25T02:44:33.174Z,14.50
2022-10-25T02:47:00.719Z,14.50
2022-10-25T02:49:28.431Z,14.50
2022-10-25T02:51:55.422Z,14.40
2022-10-25T02:54:23.130Z,14.50
2022-10-25T02:56:52.427Z,14.40
2022-10-25T02:59:21.171Z,14.40
2022-10-25T03:01:49.171Z,14.40
2022-10-25T03:04:16.529Z,14.40
2022-10-25T03:06:43.935Z,14.40
2022-10-25T03:09:11.451Z,14.40
2022-10-25T03:11:38.618Z,14.40
2022-10-25T03:14:05.711Z,14.40
2022-10-25T03:16:32.853Z,14.30
2022-10-25T03:19:00.243Z,14.30
2022-10-25T03:21:28.226Z,14.30
2022-10-25T03:23:55.522Z,14.30
2022-10-25T03:26:22.590Z,14.30
2022-10-25T03:28:49.819Z,14.30
2022-10-25T03:31:18.086Z,14.30
2022-10-25T03:33:45.361Z,14.20
2022-10-25T03:36:12.534Z,14.20
2022-10-25T03:38:40.199Z,14.20
2022-10-25T03:41:07.584Z,14.20
2022-10-25T03:43:35.173Z,14.20
2022-10-25T03:46:04.672Z,14.20
2022-10-25T03:48:31.846Z,14.20
2022-10-25T03:50:58.914Z,14.20
2022-10-25T03:53:26.685Z,14.20
2022-10-25T03:55:53.794Z,14.20
2022-10-25T03:58:20.890Z,14.20
2022-10-25T04:00:48.327Z,14.10
2022-10-25T04:03:15.532Z,14.20
2022-10-25T04:05:42.596Z,14.20
2022-10-25T04:08:09.886Z,14.20
2022-10-25T04:10:36.822Z,14.20
2022-10-25T04:13:04.196Z,14.20
2022-10-25T04:15:31.431Z,14.20
2022-10-25T04:17:58.623Z,14.20
2022-10-25T04:20:25.677Z,14.20
2022-10-25T04:22:57.817Z,14.20
2022-10-25T04:25:26.793Z,14.20
2022-10-25T04:27:54.585Z,14.20
2022-10-25T04:30:21.621Z,14.20
2022-10-25T04:32:49.469Z,14.20
2022-10-25T04:35:17.502Z,14.20
2022-10-25T04:37:44.634Z,14.20
2022-10-25T04:40:12.245Z,14.20
2022-10-25T04:42:39.502Z,14.20
2022-10-25T04:45:07.373Z,14.20
2022-10-25T04:47:35.383Z,14.20
2022-10-25T04:50:03.315Z,14.20
2022-10-25T04:52:32.454Z,14.20
2022-10-25T04:55:00.486Z,14.20
2022-10-25T04:57:29.510Z,14.20
2022-10-25T04:59:57.582Z,14.20
2022-10-25T05:02:25.276Z,14.10
2022-10-25T05:04:52.769Z,14.10
2022-10-25T05:07:21.308Z,14.10
2022-10-25T05:09:48.459Z,14.10
2022-10-25T05:12:16.094Z,14.10
2022-10-25T05:14:44.087Z,14.10
2022-10-25T05:17:11.297Z,14.10
2022-10-25T05:19:38.434Z,14.10
2022-10-25T05:22:06.031Z,14.00
2022-10-25T05:24:33.102Z,14.10
2022-10-25T05:27:00.424Z,14.10
2022-10-25T05:29:27.457Z,14.10
2022-10-25T05:31:54.763Z,14.10
2022-10-25T05:34:21.942Z,14.00
2022-10-25T05:36:49.053Z,14.00
2022-10-25T05:39:16.229Z,14.00
2022-10-25T05:41:43.518Z,14.00
2022-10-25T05:44:11.004Z,14.00
2022-10-25T05:46:38.214Z,14.00
2022-10-25T05:49:05.570Z,14.00
2022-10-25T05:51:35.083Z,14.00
2022-10-25T05:54:07.781Z,14.00
2022-10-25T05:56:36.826Z,13.90
2022-10-25T05:59:12.703Z,13.90
2022-10-25T06:01:43.961Z,14.00
2022-10-25T06:04:12.857Z,13.90
2022-10-25T06:06:42.102Z,13.90
2022-10-25T06:09:10.723Z,13.90
2022-10-25T06:11:38.817Z,13.90
2022-10-25T06:14:06.791Z,13.90
2022-10-25T06:16:34.267Z,13.90
2022-10-25T06:19:05.494Z,13.90
2022-10-25T06:21:34.022Z,13.90
2022-10-25T06:24:02.234Z,13.90
2022-10-25T06:26:31.176Z,13.90
2022-10-25T06:29:02.332Z,14.00
2022-10-25T06:31:32.290Z,14.00
2022-10-25T06:34:05.367Z,14.00
2022-10-25T06:36:32.904Z,14.00
2022-10-25T06:39:05.476Z,14.00
2022-10-25T06:41:37.136Z,14.00
2022-10-25T06:44:06.809Z,14.00
2022-10-25T06:46:58.265Z,14.10
2022-10-25T06:49:26.288Z,14.10
2022-10-25T06:51:54.007Z,14.20
2022-10-25T06:54:21.010Z,14.20
2022-10-25T06:56:48.662Z,14.30
2022-10-25T06:59:15.822Z,14.40
2022-10-25T07:01:43.109Z,14.40
2022-10-25T07:04:10.418Z,14.50
2022-10-25T07:06:37.894Z,14.50
2022-10-25T07:09:06.547Z,14.60
2022-10-25T07:11:34.130Z,14.70
2022-10-25T07:14:05.478Z,14.80
2022-10-25T07:16:32.786Z,14.90
2022-10-25T07:19:02.748Z,15.00
2022-10-25T07:21:31.920Z,15.10
2022-10-25T07:23:59.115Z,15.20
2022-10-25T07:26:34.001Z,15.30
2022-10-25T07:29:03.742Z,15.40
2022-10-25T07:31:35.196Z,15.40
2022-10-25T07:34:05.050Z,15.50
2022-10-25T07:36:32.733Z,15.50
2022-10-25T07:39:00.716Z,15.60
2022-10-25T07:41:54.322Z,15.80
2022-10-25T07:44:24.951Z,15.90
2022-10-25T07:46:53.899Z,16.00
2022-10-25T07:49:21.335Z,16.10
2022-10-25T07:51:48.647Z,16.20
2022-10-25T07:54:15.596Z,16.30
2022-10-25T07:56:42.914Z,16.40
2022-10-25T07:59:09.826Z,16.50
2022-10-25T08:01:37.552Z,16.60
2022-10-25T08:04:05.209Z,16.80
2022-10-25T08:06:32.502Z,16.90
2022-10-25T08:09:05.469Z,17.10
2022-10-25T08:11:42.750Z,17.10
2022-10-25T08:14:09.777Z,17.20
2022-10-25T08:16:36.911Z,17.40
2022-10-25T08:19:04.438Z,17.60
2022-10-25T08:21:31.596Z,17.60
2022-10-25T08:23:58.620Z,17.70
2022-10-25T08:26:26.745Z,17.80
2022-10-25T08:28:53.739Z,18.00
2022-10-25T08:31:21.192Z,18.00
2022-10-25T08:33:48.726Z,18.20
2022-10-25T08:36:15.838Z,18.40
2022-10-25T08:38:43.198Z,18.40
2022-10-25T08:41:56.524Z,18.40
2022-10-25T08:44:45.481Z,18.50
2022-10-25T08:47:29.716Z,18.60
2022-10-25T08:50:20.421Z,18.60
2022-10-25T08:52:58.914Z,18.40
2022-10-25T08:55:32.506Z,18.30
2022-10-25T08:58:06.750Z,18.20
2022-10-25T09:00:40.774Z,18.20
2022-10-25T09:03:24.848Z,18.10
2022-10-25T09:06:22.243Z,18.10
2022-10-25T09:09:18.622Z,18.00
2022-10-25T09:12:19.423Z,18.10
2022-10-25T09:15:05.490Z,18.10
2022-10-25T09:17:52.412Z,18.10
2022-10-25T09:20:30.511Z,18.00
2022-10-25T09:23:29.285Z,17.90
2022-10-25T09:26:19.904Z,17.80
2022-10-25T09:28:52.714Z,17.70
2022-10-25T09:31:24.362Z,17.70
2022-10-25T09:34:04.449Z,17.70
2022-10-25T09:36:46.208Z,17.70
2022-10-25T09:39:37.218Z,17.70
2022-10-25T09:42:28.166Z,17.60
2022-10-25T09:45:02.888Z,17.60
2022-10-25T09:48:08.664Z,17.60
2022-10-25T09:50:46.572Z,17.70
2022-10-25T09:53:21.677Z,17.60
2022-10-25T09:55:57.842Z,17.50
2022-10-25T09:58:33.007Z,17.60
2022-10-25T10:01:13.052Z,17.60
2022-10-25T10:03:41.421Z,17.70
2022-10-25T10:06:36.277Z,17.60
2022-10-25T10:09:09.282Z,17.60
2022-10-25T10:11:37.792Z,17.50
2022-10-25T10:14:31.858Z,17.40
2022-10-25T10:17:03.815Z,17.30
2022-10-25T10:19:31.325Z,17.30
2022-10-25T10:22:08.538Z,17.30
2022-10-25T10:24:43.227Z,17.30
2022-10-25T10:27:25.874Z,17.50
2022-10-25T10:30:07.027Z,17.30
2022-10-25T10:32:37.873Z,17.30
2022-10-25T10:35:22.263Z,17.30
2022-10-25T10:37:49.594Z,17.40
2022-10-25T10:40:17.094Z,17.50
2022-10-25T10:42:44.452Z,17.60
2022-10-25T10:45:12.321Z,17.70
2022-10-25T10:47:57.924Z,17.80
2022-10-25T10:50:32.739Z,17.80
2022-10-25T10:53:14.546Z,17.70
2022-10-25T10:55:52.985Z,17.60
2022-10-25T10:58:38.414Z,17.60
2022-10-25T11:01:12.808Z,17.50
2022-10-25T11:03:48.840Z,17.40
2022-10-25T11:06:33.862Z,17.40
2022-10-25T11:09:22.110Z,17.30
2022-10-25T11:12:10.787Z,17.40
2022-10-25T11:14:38.722Z,17.50
2022-10-25T11:17:30.571Z,17.50
2022-10-25T11:20:38.904Z,17.60
2022-10-25T11:23:29.537Z,17.80
2022-10-25T11:26:09.638Z,18.20
2022-10-25T11:28:57.860Z,18.40
2022-10-25T11:32:18.670Z,18.70
2022-10-25T11:35:06.989Z,19.00
2022-10-25T11:37:47.500Z,19.30
2022-10-25T11:40:26.168Z,19.50
2022-10-25T11:43:37.222Z,19.70
2022-10-25T11:46:14.811Z,19.70
2022-10-25T11:49:19.802Z,19.60
2022-10-25T11:52:28.337Z,19.60
2022-10-25T11:55:34.725Z,19.70
2022-10-25T11:58:34.633Z,19.80
2022-10-25T12:01:41.292Z,19.70
2022-10-25T12:04:44.718Z,19.80
2022-10-25T12:07:48.692Z,19.90
2022-10-25T12:10:27.840Z,20.00
2022-10-25T12:13:17.337Z,20.00
2022-10-25T12:15:50.626Z,20.20
2022-10-25T12:18:35.379Z,20.40
2022-10-25T12:21:04.746Z,20.60
2022-10-25T12:23:43.935Z,20.80
2022-10-25T12:26:33.320Z,20.80
2022-10-25T12:29:05.842Z,20.70
2022-10-25T12:31:40.398Z,20.90
2022-10-25T12:34:37.773Z,21.20
2022-10-25T12:37:25.247Z,21.50
2022-10-25T12:39:53.044Z,21.50
2022-10-25T12:42:55.413Z,21.20
2022-10-25T12:45:53.499Z,21.10
2022-10-25T12:49:13.097Z,21.10
2022-10-25T12:52:18.604Z,20.90
2022-10-25T12:55:38.493Z,21.00
2022-10-25T12:58:45.782Z,21.20
2022-10-25T13:01:13.648Z,21.30
2022-10-25T13:04:35.337Z,21.40
2022-10-25T13:07:06.686Z,21.40
2022-10-25T13:09:37.291Z,21.50
2022-10-25T13:12:16.754Z,21.60
2022-10-25T13:14:54.927Z,21.90
2022-10-25T13:17:22.023Z,21.80
2022-10-25T13:22:51.339Z,21.60
2022-10-25T13:25:47.705Z,21.60
2022-10-25T13:28:14.842Z,21.40
2022-10-25T13:30:45.055Z,21.30
2022-10-25T13:33:21.430Z,21.10
2022-10-25T13:35:48.593Z,20.80
2022-10-25T13:38:38.052Z,20.70
2022-10-25T13:41:19.330Z,20.60
2022-10-25T13:44:02.423Z,20.50
2022-10-25T13:46:40.649Z,20.40
2022-10-25T13:49:41.470Z,20.30
2022-10-25T13:52:31.963Z,20.20
2022-10-25T13:55:03.522Z,20.10
2022-10-25T13:57:49.102Z,20.00
2022-10-25T14:00:47.814Z,19.90
2022-10-25T14:03:19.576Z,19.80
2022-10-25T14:05:58.488Z,19.80
2022-10-25T14:08:51.909Z,19.80
2022-10-25T14:11:47.226Z,19.70
2022-10-25T14:15:09.015Z,19.70
2022-10-25T14:17:41.945Z,19.60
2022-10-25T14:20:10.747Z,19.60
2022-10-25T14:22:46.353Z,19.50
2022-10-25T14:25:23.086Z,19.50
2022-10-25T14:28:14.693Z,19.40
2022-10-25T14:31:14.502Z,19.40
2022-10-25T14:33:57.127Z,19.30
2022-10-25T14:36:33.734Z,19.20
2022-10-25T14:39:23.929Z,19.00
2022-10-25T14:42:03.111Z,18.90
2022-10-25T14:44:50.228Z,18.80
2022-10-25T14:47:33.300Z,18.70
2022-10-25T14:50:02.594Z,18.60
2022-10-25T14:52:31.517Z,18.50
2022-10-25T14:55:04.214Z,18.40
2022-10-25T14:57:33.315Z,18.40
2022-10-25T15:00:04.433Z,18.50
2022-10-25T15:02:39.822Z,18.40
2022-10-25T15:05:17.388Z,18.40
2022-10-25T15:07:47.305Z,18.30
2022-10-25T15:10:41.569Z,18.20
2022-10-25T15:13:20.138Z,18.20
2022-10-25T15:15:51.026Z,18.10
2022-10-25T15:18:34.803Z,18.10
2022-10-25T15:21:05.564Z,18.10
2022-10-25T15:23:34.780Z,18.00
2022-10-25T15:26:28.432Z,17.90
2022-10-25T15:29:00.147Z,17.90
2022-10-25T15:31:32.637Z,17.90
2022-10-25T15:34:05.883Z,17.90
2022-10-25T15:36:34.551Z,17.90
2022-10-25T15:39:24.979Z,17.90
2022-10-25T15:41:52.113Z,17.80
2022-10-25T15:44:19.162Z,17.70
2022-10-25T15:46:48.964Z,17.70
2022-10-25T15:49:16.714Z,17.70
2022-10-25T15:51:45.755Z,17.60
2022-10-25T15:54:22.998Z,17.50
2022-10-25T15:56:51.773Z,17.40
2022-10-25T15:59:18.820Z,17.40
2022-10-25T16:01:51.982Z,17.40
2022-10-25T16:04:19.905Z,17.30
2022-10-25T16:06:48.076Z,17.20
2022-10-25T16:09:15.191Z,17.10
2022-10-25T16:11:54.457Z,17.10
2022-10-25T16:14:26.686Z,17.10
2022-10-25T16:17:06.788Z,17.10
2022-10-25T16:56:17.554Z,16.70
2022-10-25T18:22:24.621Z,15.50
2022-10-25T18:24:52.116Z,15.50
2022-10-25T18:27:20.906Z,15.40
2022-10-25T18:29:48.717Z,15.30
2022-10-25T18:32:16.370Z,15.30
2022-10-25T18:34:44.008Z,15.30
2022-10-25T18:37:11.744Z,15.20
2022-10-25T18:39:39.169Z,15.20
2022-10-25T18:42:06.871Z,15.20
2022-10-25T18:44:34.369Z,15.10
2022-10-25T18:47:02.505Z,15.10
2022-10-25T18:49:29.915Z,15.10
2022-10-25T19:18:29.148Z,14.70
2022-10-25T19:21:04.493Z,14.60
2022-10-25T19:23:33.845Z,14.60
2022-10-25T19:26:08.514Z,14.50
2022-10-25T19:28:36.410Z,14.50
2022-10-25T19:31:11.548Z,14.50
2022-10-25T19:33:44.161Z,14.50
2022-10-25T19:36:12.197Z,14.50
2022-10-25T19:38:40.241Z,14.40
2022-10-25T19:41:13.890Z,14.40
2022-10-25T19:43:40.925Z,14.40
2022-10-25T19:46:08.475Z,14.40
2022-10-25T19:48:35.910Z,14.30
2022-10-25T19:51:07.177Z,14.30
2022-10-25T19:53:36.325Z,14.30
2022-10-25T19:56:08.842Z,14.30
2022-10-25T19:58:36.393Z,14.30
2022-10-25T20:01:12.018Z,14.30
2022-10-25T20:03:41.871Z,14.30
2022-10-25T20:06:20.218Z,14.20
2022-10-25T20:08:58.255Z,14.20
2022-10-25T20:11:27.797Z,14.20
2022-10-25T20:13:58.294Z,14.20
2022-10-25T20:16:27.666Z,14.20
2022-10-25T20:18:55.325Z,14.20
2022-10-25T20:21:28.984Z,14.20
2022-10-25T20:24:00.337Z,14.10
2022-10-25T20:26:35.921Z,14.10
2022-10-25T20:29:17.032Z,14.10
2022-10-25T20:31:47.707Z,14.10
2022-10-25T20:34:15.322Z,14.10
2022-10-25T20:36:42.560Z,14.00
2022-10-25T20:39:12.315Z,14.00
2022-10-25T20:41:39.867Z,14.00
2022-10-25T20:44:08.648Z,14.00
2022-10-25T20:46:36.782Z,13.90
2022-10-25T20:49:04.815Z,13.90
2022-10-25T20:51:32.089Z,13.90
2022-10-25T20:53:59.095Z,13.90
2022-10-25T20:56:26.449Z,13.90
2022-10-25T20:58:53.689Z,13.80
2022-10-25T21:01:21.251Z,13.80
2022-10-25T21:03:48.370Z,13.70
2022-10-25T21:06:15.885Z,13.80
2022-10-25T21:08:43.501Z,13.70
2022-10-25T21:11:13.165Z,13.70
2022-10-25T21:13:42.746Z,13.70
2022-10-25T21:18:07.919Z,13.60
2022-10-25T21:20:36.990Z,13.60
2022-10-25T21:23:08.705Z,13.60
2022-10-25T21:25:36.113Z,13.50
2022-10-25T21:28:04.615Z,13.50
2022-10-25T21:30:33.160Z,13.50
2022-10-25T21:33:00.126Z,13.50
2022-10-25T21:35:28.488Z,13.50
2022-10-25T21:37:59.030Z,13.50
2022-10-25T21:40:26.398Z,13.40
2022-10-25T21:42:53.470Z,13.40
2022-10-25T21:45:20.804Z,13.40
2022-10-25T21:47:47.967Z,13.40
2022-10-25T21:50:16.027Z,13.40
2022-10-25T21:52:43.474Z,13.30
2022-10-25T21:55:10.709Z,13.30
2022-10-25T21:57:38.934Z,13.30
2022-10-25T22:00:07.140Z,13.20
2022-10-25T22:02:41.102Z,13.20
2022-10-25T22:05:08.675Z,13.20
2022-10-25T22:07:35.622Z,13.20
2022-10-25T22:10:03.387Z,13.20
2022-10-25T22:12:30.445Z,13.20
2022-10-25T22:14:57.736Z,13.20
2022-10-25T22:17:24.794Z,13.10
2022-10-25T22:19:52.055Z,13.20
2022-10-25T22:22:19.099Z,13.10
2022-10-25T22:24:46.291Z,13.10
2022-10-25T22:27:13.395Z,13.10
2022-10-25T22:29:40.868Z,13.10
2022-10-25T22:32:07.953Z,13.10
2022-10-25T22:34:35.438Z,13.10
2022-10-25T22:37:02.406Z,13.10
2022-10-25T22:39:29.568Z,13.10
2022-10-25T22:41:56.638Z,13.10
2022-10-25T22:44:23.901Z,13.10
2022-10-25T22:46:50.839Z,13.10
2022-10-25T22:49:19.346Z,13.10
2022-10-25T22:51:46.321Z,13.00
2022-10-25T22:54:13.547Z,13.00
2022-10-25T22:56:40.543Z,13.10
2022-10-25T22:59:11.536Z,13.00
2022-10-25T23:01:38.892Z,13.00
2022-10-25T23:04:09.249Z,13.00
2022-10-25T23:06:39.729Z,12.90
2022-10-25T23:09:10.003Z,12.90
2022-10-25T23:11:39.950Z,12.90
2022-10-25T23:14:13.308Z,12.90
2022-10-25T23:16:43.693Z,12.80
2022-10-25T23:19:10.775Z,12.80
2022-10-25T23:21:38.225Z,12.80
2022-10-25T23:24:06.020Z,12.80
2022-10-25T23:26:36.314Z,12.80
2022-10-25T23:29:05.074Z,12.80
2022-10-25T23:31:32.953Z,12.80
2022-10-25T23:34:01.085Z,12.80
2022-10-25T23:36:37.794Z,12.70
2022-10-25T23:39:07.798Z,12.70
2022-10-25T23:41:34.955Z,12.70
2022-10-25T23:44:07.178Z,12.70
2022-10-25T23:46:34.153Z,12.70
2022-10-25T23:49:04.302Z,12.70
2022-10-25T23:51:31.334Z,12.70
2022-10-25T23:53:58.521Z,12.70
2022-10-25T23:56:25.889Z,12.70
2022-10-25T23:58:53.729Z,12.70
